createdAt,value
2022-12-18T00:01:24.886Z,46.70
2022-12-18T00:03:53.404Z,47.65
2022-12-18T00:06:22.884Z,49.63
2022-12-18T00:08:49.930Z,46.10
2022-12-18T00:11:19.064Z,46.22
2022-12-18T00:13:45.980Z,48.22
2022-12-18T00:16:16.241Z,51.03
2022-12-18T00:21:12.271Z,52.45
2022-12-18T00:23:40.515Z,53.95
2022-12-18T00:26:26.348Z,55.40
2022-12-18T00:28:53.893Z,53.42
2022-12-18T00:31:22.705Z,57.08
2022-12-18T00:33:50.073Z,56.70
2022-12-18T00:36:27.006Z,56.67
2022-12-18T00:38:55.387Z,52.70
2022-12-18T00:41:41.090Z,50.63
2022-12-18T00:44:10.412Z,56.00
2022-12-18T00:46:37.079Z,51.03
2022-12-18T00:49:03.935Z,59.33
2022-12-18T00:51:30.736Z,56.25
2022-12-18T00:53:57.422Z,56.33
2022-12-18T00:56:24.924Z,55.58
2022-12-18T00:58:51.782Z,55.58
2022-12-18T01:01:19.093Z,52.60
2022-12-18T01:03:48.620Z,59.60
2022-12-18T01:06:16.430Z,54.50
2022-12-18T01:08:43.687Z,52.35
2022-12-18T01:11:21.179Z,54.25
2022-12-18T01:13:48.525Z,57.25
2022-12-18T01:16:17.277Z,58.22
2022-12-18T01:18:44.291Z,53.97
2022-12-18T01:21:15.163Z,57.38
2022-12-18T01:23:42.514Z,53.10
2022-12-18T01:26:11.931Z,50.95
2022-12-18T01:28:38.787Z,52.70
2022-12-18T01:31:18.306Z,54.40
2022-12-18T01:33:48.839Z,52.40
2022-12-18T01:36:17.529Z,53.25
2022-12-18T01:38:44.350Z,47.95
2022-12-18T01:41:11.680Z,53.10
2022-12-18T01:43:58.939Z,49.47
2022-12-18T01:46:27.788Z,49.70
2022-12-18T01:49:02.514Z,44.28
2022-12-18T01:51:30.824Z,47.83
2022-12-18T01:53:59.980Z,48.95
2022-12-18T01:56:26.802Z,46.50
2022-12-18T01:59:02.025Z,48.40
2022-12-18T02:01:31.052Z,46.65
2022-12-18T02:04:14.695Z,48.88
2022-12-18T02:06:43.964Z,46.95
2022-12-18T02:09:23.207Z,48.50
2022-12-18T02:12:19.638Z,49.70
2022-12-18T02:15:25.040Z,49.58
2022-12-18T02:17:57.782Z,45.97
2022-12-18T02:20:34.441Z,48.72
2022-12-18T02:23:25.370Z,48.47
2022-12-18T02:26:11.271Z,49.05
2022-12-18T02:29:10.730Z,50.22
2022-12-18T02:31:41.745Z,52.73
2022-12-18T02:34:10.072Z,47.90
2022-12-18T02:36:40.028Z,45.53
2022-12-18T02:39:09.973Z,47.13
2022-12-18T02:41:37.603Z,49.40
2022-12-18T02:44:09.882Z,51.13
2022-12-18T02:46:42.572Z,50.08
2022-12-18T02:49:39.641Z,45.08
2022-12-18T02:52:29.672Z,50.17
2022-12-18T02:55:19.860Z,47.72
2022-12-18T02:58:14.993Z,46.88
2022-12-18T03:00:54.174Z,46.42
2022-12-18T03:03:31.101Z,48.38
2022-12-18T03:06:16.100Z,46.40
2022-12-18T03:08:48.262Z,46.47
2022-12-18T03:11:16.236Z,46.08
2022-12-18T03:14:04.929Z,44.47
2022-12-18T03:16:34.996Z,45.80
2022-12-18T03:19:23.211Z,44.72
2022-12-18T03:21:56.649Z,43.05
2022-12-18T03:24:25.180Z,43.13
2022-12-18T03:27:02.801Z,45.55
2022-12-18T03:29:36.965Z,38.53
2022-12-18T03:32:10.578Z,45.67
2022-12-18T03:34:40.811Z,45.05
2022-12-18T03:39:35.886Z,39.83
2022-12-18T03:42:16.859Z,40.03
2022-12-18T03:45:04.921Z,43.33
2022-12-18T03:47:53.472Z,38.97
2022-12-18T03:50:32.071Z,37.47
2022-12-18T03:53:09.413Z,44.25
2022-12-18T03:55:36.983Z,43.22
2022-12-18T03:58:05.869Z,37.95
2022-12-18T04:00:33.957Z,40.45
2022-12-18T04:03:02.886Z,40.20
2022-12-18T04:05:31.093Z,39.75
2022-12-18T04:07:58.248Z,41.17
2022-12-18T04:10:24.943Z,42.10
2022-12-18T04:12:51.713Z,42.03
2022-12-18T04:15:18.644Z,37.33
2022-12-18T04:17:50.037Z,38.28
2022-12-18T04:20:17.555Z,33.30
2022-12-18T04:22:44.300Z,36.38
2022-12-18T04:25:14.421Z,30.65
2022-12-18T04:27:41.164Z,28.92
2022-12-18T04:30:08.530Z,34.55
2022-12-18T04:32:36.023Z,32.17
2022-12-18T04:35:05.052Z,28.02
2022-12-18T04:37:31.766Z,30.63
2022-12-18T04:39:58.511Z,28.15
2022-12-18T04:42:25.217Z,29.83
2022-12-18T04:44:51.904Z,32.45
2022-12-18T04:47:18.583Z,27.90
2022-12-18T04:49:45.320Z,28.70
2022-12-18T04:52:12.000Z,29.17
2022-12-18T04:54:38.664Z,30.27
2022-12-18T04:57:05.321Z,29.98
2022-12-18T04:59:32.037Z,31.02
2022-12-18T05:01:58.762Z,32.63
2022-12-18T05:04:25.555Z,27.75
2022-12-18T05:06:52.240Z,29.25
2022-12-18T05:09:18.940Z,25.08
2022-12-18T05:11:47.582Z,28.52
2022-12-18T05:14:14.382Z,24.33
2022-12-18T05:16:41.253Z,22.67
2022-12-18T05:19:07.995Z,27.42
2022-12-18T05:21:34.664Z,27.63
2022-12-18T05:24:01.363Z,24.58
2022-12-18T05:26:28.051Z,26.58
2022-12-18T05:28:57.586Z,27.30
2022-12-18T05:31:24.351Z,26.42
2022-12-18T05:33:51.126Z,25.55
2022-12-18T05:36:17.912Z,24.10
2022-12-18T05:38:44.607Z,21.70
2022-12-18T05:41:11.467Z,29.08
2022-12-18T05:43:41.879Z,24.27
2022-12-18T05:46:13.974Z,28.63
2022-12-18T05:48:40.963Z,25.05
2022-12-18T05:51:13.952Z,26.27
2022-12-18T05:53:41.336Z,24.35
2022-12-18T05:56:11.921Z,25.67
2022-12-18T06:01:19.821Z,26.33
2022-12-18T06:03:47.264Z,24.05
2022-12-18T06:06:26.255Z,24.08
2022-12-18T06:08:53.926Z,23.67
2022-12-18T06:11:23.611Z,24.52
2022-12-18T06:16:25.337Z,23.52
2022-12-18T06:18:52.127Z,20.52
2022-12-18T06:21:18.886Z,24.30
2022-12-18T06:23:45.576Z,23.98
2022-12-18T06:26:13.980Z,25.10
2022-12-18T06:28:40.764Z,22.05
2022-12-18T06:31:08.240Z,24.55
2022-12-18T06:33:35.529Z,22.90
2022-12-18T06:36:03.882Z,18.55
2022-12-18T06:38:30.579Z,22.38
2022-12-18T06:40:57.538Z,20.67
2022-12-18T06:43:24.272Z,22.80
2022-12-18T06:45:53.654Z,26.73
2022-12-18T06:48:21.016Z,23.13
2022-12-18T06:50:48.143Z,25.45
2022-12-18T06:53:14.888Z,20.40
2022-12-18T06:55:41.613Z,25.70
2022-12-18T06:58:08.580Z,22.75
2022-12-18T07:00:37.392Z,18.85
2022-12-18T07:03:04.238Z,27.58
2022-12-18T07:05:31.022Z,29.00
2022-12-18T07:07:57.772Z,21.85
2022-12-18T07:10:24.506Z,22.08
2022-12-18T07:12:51.157Z,23.50
2022-12-18T07:15:17.868Z,21.25
2022-12-18T07:17:44.531Z,23.30
2022-12-18T07:20:11.495Z,23.60
2022-12-18T07:22:38.427Z,23.25
2022-12-18T07:25:05.722Z,20.30
2022-12-18T07:27:32.384Z,19.90
2022-12-18T07:29:59.355Z,21.40
2022-12-18T07:32:26.102Z,19.65
2022-12-18T07:34:52.768Z,18.23
2022-12-18T07:37:19.490Z,22.80
2022-12-18T07:39:46.160Z,24.73
2022-12-18T07:42:33.145Z,21.92
2022-12-18T07:45:01.325Z,20.17
2022-12-18T07:47:29.033Z,20.70
2022-12-18T07:49:56.721Z,23.08
2022-12-18T07:52:26.122Z,19.85
2022-12-18T07:54:53.179Z,21.33
2022-12-18T07:57:41.733Z,19.02
2022-12-18T08:00:07.193Z,21.73
2022-12-18T08:02:34.036Z,23.90
2022-12-18T08:05:01.534Z,19.85
2022-12-18T08:07:28.287Z,20.75
2022-12-18T08:09:54.950Z,24.67
2022-12-18T08:12:21.667Z,23.15
2022-12-18T08:14:48.340Z,23.05
2022-12-18T08:17:15.044Z,21.95
2022-12-18T08:19:41.724Z,22.08
2022-12-18T08:22:08.484Z,21.88
2022-12-18T08:24:35.324Z,24.45
2022-12-18T08:29:48.768Z,20.00
2022-12-18T08:32:15.573Z,19.63
2022-12-18T08:34:42.353Z,20.25
2022-12-18T08:37:09.036Z,23.95
2022-12-18T08:39:35.804Z,20.15
2022-12-18T08:42:21.096Z,21.13
2022-12-18T08:44:47.889Z,20.77
2022-12-18T08:47:14.620Z,22.50
2022-12-18T08:49:41.605Z,23.15
2022-12-18T08:52:08.325Z,21.50
2022-12-18T08:54:35.014Z,21.58
2022-12-18T08:57:01.792Z,20.98
2022-12-18T08:59:29.718Z,22.45
2022-12-18T09:01:56.635Z,21.50
2022-12-18T09:04:23.609Z,19.90
2022-12-18T09:06:50.277Z,21.17
2022-12-18T09:09:17.092Z,22.23
2022-12-18T09:11:43.903Z,19.35
2022-12-18T09:14:11.083Z,21.50
2022-12-18T09:16:37.874Z,19.30
2022-12-18T09:19:05.870Z,20.10
2022-12-18T09:21:36.935Z,20.55
2022-12-18T09:24:05.183Z,17.65
2022-12-18T09:26:36.055Z,19.65
2022-12-18T09:29:03.969Z,22.08
2022-12-18T09:31:30.653Z,21.27
2022-12-18T09:33:57.768Z,21.00
2022-12-18T09:36:24.645Z,18.40
2022-12-18T09:38:51.466Z,21.85
2022-12-18T09:41:48.646Z,21.02
2022-12-18T09:44:29.180Z,19.75
2022-12-18T09:47:07.359Z,22.23
2022-12-18T09:49:47.144Z,18.55
2022-12-18T09:52:42.919Z,22.02
2022-12-18T09:55:37.483Z,22.92
2022-12-18T09:58:34.128Z,22.08
2022-12-18T10:01:00.797Z,20.85
2022-12-18T10:03:27.876Z,19.40
2022-12-18T10:06:23.185Z,22.33
2022-12-18T10:09:02.147Z,20.27
2022-12-18T10:11:42.845Z,22.15
2022-12-18T10:14:49.541Z,22.05
2022-12-18T10:17:28.271Z,20.92
2022-12-18T10:20:03.824Z,20.55
2022-12-18T10:23:01.352Z,21.15
2022-12-18T10:25:46.595Z,19.02
2022-12-18T10:28:18.351Z,20.42
2022-12-18T10:30:45.147Z,18.88
2022-12-18T10:33:20.037Z,22.00
2022-12-18T10:35:49.290Z,19.40
2022-12-18T10:38:17.126Z,21.70
2022-12-18T10:40:57.706Z,20.58
2022-12-18T10:43:35.352Z,20.65
2022-12-18T10:46:11.217Z,19.10
2022-12-18T10:48:50.031Z,22.00
2022-12-18T10:51:24.253Z,23.02
2022-12-18T10:53:56.418Z,28.25
2022-12-18T10:56:24.756Z,24.60
2022-12-18T10:59:01.811Z,21.33
2022-12-18T11:01:29.513Z,41.20
2022-12-18T11:04:02.390Z,31.92
2022-12-18T11:06:30.271Z,26.17
2022-12-18T11:09:20.079Z,27.42
2022-12-18T11:11:55.303Z,32.08
2022-12-18T11:14:26.746Z,31.90
2022-12-18T11:17:24.213Z,32.60
2022-12-18T11:19:42.523Z,42.35
2022-12-18T11:22:31.322Z,33.20
2022-12-18T11:28:02.723Z,30.77
2022-12-18T11:30:30.673Z,33.30
2022-12-18T11:33:05.742Z,32.13
2022-12-18T11:35:45.300Z,29.67
2022-12-18T11:38:17.337Z,28.92
2022-12-18T11:40:48.076Z,28.48
2022-12-18T11:43:17.206Z,28.00
2022-12-18T11:45:53.697Z,24.40
2022-12-18T11:48:27.868Z,24.52
2022-12-18T11:50:57.178Z,24.48
2022-12-18T11:53:26.297Z,22.88
2022-12-18T11:56:21.935Z,18.08
2022-12-18T11:58:57.016Z,19.23
2022-12-18T12:01:43.986Z,24.45
2022-12-18T12:04:33.380Z,21.65
2022-12-18T12:07:23.398Z,26.00
2022-12-18T12:10:23.764Z,22.77
2022-12-18T12:13:13.842Z,20.67
2022-12-18T12:15:46.238Z,21.17
2022-12-18T12:18:27.694Z,22.23
2022-12-18T12:21:09.290Z,22.75
2022-12-18T12:23:47.423Z,20.42
2022-12-18T12:26:35.987Z,21.27
2022-12-18T12:29:21.444Z,20.98
2022-12-18T12:32:04.623Z,21.48
2022-12-18T12:35:01.755Z,17.60
2022-12-18T12:37:59.908Z,18.45
2022-12-18T12:43:25.640Z,22.10
2022-12-18T12:45:59.485Z,20.40
2022-12-18T12:48:43.483Z,19.10
2022-12-18T12:51:21.147Z,22.60
2022-12-18T12:53:49.063Z,21.48
2022-12-18T12:56:23.241Z,18.42
2022-12-18T12:59:20.161Z,21.83
2022-12-18T13:02:08.308Z,19.42
2022-12-18T13:04:57.422Z,20.85
2022-12-18T13:07:42.523Z,22.13
2022-12-18T13:10:32.189Z,22.45
2022-12-18T13:16:09.172Z,22.30
2022-12-18T13:18:36.557Z,20.10
2022-12-18T13:21:16.628Z,25.80
2022-12-18T13:23:43.935Z,20.23
2022-12-18T13:26:26.315Z,19.73
2022-12-18T13:28:56.961Z,24.88
2022-12-18T13:31:41.833Z,19.27
2022-12-18T13:34:28.243Z,21.83
2022-12-18T13:36:57.130Z,22.08
2022-12-18T13:39:30.250Z,21.40
2022-12-18T13:42:07.122Z,20.05
2022-12-18T13:44:40.702Z,21.88
2022-12-18T13:47:33.203Z,22.98
2022-12-18T13:50:02.738Z,20.40
2022-12-18T13:52:39.796Z,24.85
2022-12-18T13:55:15.587Z,21.85
2022-12-18T13:57:42.445Z,23.15
2022-12-18T14:00:28.937Z,20.60
2022-12-18T14:02:57.374Z,19.95
2022-12-18T14:05:30.978Z,22.27
2022-12-18T14:08:22.164Z,21.08
2022-12-18T14:10:52.150Z,21.33
2022-12-18T14:13:30.341Z,24.10
2022-12-18T14:15:58.664Z,21.73
2022-12-18T14:18:35.170Z,19.77
2022-12-18T14:21:04.675Z,21.45
2022-12-18T14:23:42.663Z,20.52
2022-12-18T14:26:29.783Z,22.95
2022-12-18T14:28:58.048Z,19.15
2022-12-18T14:31:30.934Z,23.58
2022-12-18T14:33:59.100Z,22.90
2022-12-18T14:36:28.659Z,21.27
2022-12-18T14:39:00.272Z,23.73
2022-12-18T14:41:27.648Z,20.67
2022-12-18T14:43:55.543Z,22.77
2022-12-18T14:46:46.779Z,23.70
2022-12-18T14:49:25.661Z,19.48
2022-12-18T14:51:55.469Z,22.17
2022-12-18T14:54:24.169Z,19.55
2022-12-18T14:56:58.860Z,22.55
2022-12-18T14:59:27.479Z,24.48
2022-12-18T15:02:06.246Z,22.45
2022-12-18T15:04:42.105Z,24.17
2022-12-18T15:07:16.988Z,21.65
2022-12-18T15:10:00.814Z,21.02
2022-12-18T15:13:06.450Z,23.23
2022-12-18T15:15:38.823Z,22.92
2022-12-18T15:18:08.835Z,21.25
2022-12-18T15:20:57.682Z,20.77
2022-12-18T15:23:28.700Z,28.35
2022-12-18T15:25:58.610Z,22.52
2022-12-18T15:28:33.042Z,31.10
2022-12-18T15:31:19.092Z,23.77
2022-12-18T15:34:00.482Z,20.50
2022-12-18T15:36:27.322Z,24.40
2022-12-18T15:39:01.316Z,24.20
2022-12-18T15:41:37.019Z,24.08
2022-12-18T15:44:22.031Z,22.23
2022-12-18T15:46:48.775Z,23.30
2022-12-18T15:49:15.449Z,23.95
2022-12-18T15:51:42.282Z,24.38
2022-12-18T15:54:14.067Z,22.90
2022-12-18T15:57:00.109Z,22.77
2022-12-18T15:59:27.373Z,25.13
2022-12-18T16:01:54.391Z,23.20
2022-12-18T16:04:23.163Z,23.25
2022-12-18T16:07:13.848Z,26.33
2022-12-18T16:09:37.743Z,25.98
2022-12-18T16:12:04.820Z,21.95
2022-12-18T16:14:32.926Z,26.85
2022-12-18T16:17:06.414Z,24.05
2022-12-18T16:19:33.233Z,27.05
2022-12-18T16:22:00.302Z,24.10
2022-12-18T16:24:29.200Z,22.83
2022-12-18T16:26:58.625Z,25.02
2022-12-18T16:29:28.232Z,24.00
2022-12-18T16:31:59.155Z,22.58
2022-12-18T16:34:29.621Z,26.27
2022-12-18T16:37:08.003Z,22.35
2022-12-18T16:39:35.540Z,23.23
2022-12-18T16:42:05.914Z,24.95
2022-12-18T16:44:34.009Z,24.48
2022-12-18T16:47:02.936Z,25.70
2022-12-18T16:49:30.591Z,25.02
2022-12-18T16:51:57.332Z,27.27
2022-12-18T16:54:24.475Z,26.40
2022-12-18T16:56:52.259Z,25.23
2022-12-18T16:59:19.914Z,27.38
2022-12-18T17:01:47.507Z,26.27
2022-12-18T17:04:14.789Z,30.10
2022-12-18T17:06:43.967Z,26.80
2022-12-18T17:09:16.256Z,32.17
2022-12-18T17:11:43.617Z,26.13
2022-12-18T17:14:16.416Z,26.13
2022-12-18T17:16:43.529Z,25.88
2022-12-18T17:19:16.752Z,29.60
2022-12-18T17:21:45.336Z,27.77
2022-12-18T17:24:12.133Z,25.35
2022-12-18T17:26:39.025Z,29.65
2022-12-18T17:29:06.115Z,27.02
2022-12-18T17:31:34.868Z,27.63
2022-12-18T17:34:03.507Z,25.65
2022-12-18T17:36:33.528Z,26.17
2022-12-18T17:39:01.842Z,24.48
2022-12-18T17:41:30.158Z,28.92
2022-12-18T17:44:04.089Z,27.92
2022-12-18T17:46:32.983Z,29.70
2022-12-18T17:49:01.350Z,28.55
2022-12-18T17:51:28.817Z,23.75
2022-12-18T17:53:55.545Z,24.15
2022-12-18T17:56:23.581Z,27.25
2022-12-18T17:58:50.691Z,27.00
2022-12-18T18:01:21.285Z,28.92
2022-12-18T18:03:50.973Z,28.33
2022-12-18T18:06:20.482Z,29.20
2022-12-18T18:08:47.390Z,31.60
2022-12-18T18:11:36.009Z,28.45
2022-12-18T18:14:05.251Z,27.58
2022-12-18T18:17:00.779Z,25.30
2022-12-18T18:19:32.459Z,28.05
2022-12-18T18:21:59.171Z,26.27
2022-12-18T18:24:26.252Z,28.60
2022-12-18T18:26:53.270Z,24.42
2022-12-18T18:29:23.704Z,27.60
2022-12-18T18:31:52.913Z,28.00
2022-12-18T18:34:23.416Z,30.60
2022-12-18T18:36:50.631Z,26.63
2022-12-18T18:39:17.621Z,24.85
2022-12-18T18:41:48.212Z,28.08
2022-12-18T18:44:16.190Z,26.80
2022-12-18T18:46:43.168Z,25.25
2022-12-18T18:49:10.251Z,27.67
2022-12-18T18:51:36.982Z,28.50
2022-12-18T18:54:03.854Z,27.85
2022-12-18T18:59:18.428Z,23.63
2022-12-18T19:01:45.452Z,30.75
2022-12-18T19:04:12.282Z,28.65
2022-12-18T19:06:39.659Z,27.27
2022-12-18T19:09:07.456Z,28.77
2022-12-18T19:11:53.237Z,27.95
2022-12-18T19:14:20.323Z,28.67
2022-12-18T19:16:47.081Z,28.73
2022-12-18T19:19:14.580Z,26.38
2022-12-18T19:21:41.365Z,27.95
2022-12-18T19:24:09.319Z,25.40
2022-12-18T19:26:37.639Z,25.35
2022-12-18T19:29:07.530Z,27.50
2022-12-18T19:31:36.980Z,29.45
2022-12-18T19:34:06.888Z,26.63
2022-12-18T19:36:36.336Z,28.00
2022-12-18T19:39:09.633Z,25.43
2022-12-18T19:41:36.469Z,25.92
2022-12-18T19:44:08.078Z,29.20
2022-12-18T19:46:35.729Z,29.67
2022-12-18T19:49:02.797Z,28.77
2022-12-18T19:51:31.366Z,34.53
2022-12-18T19:54:01.252Z,26.92
2022-12-18T19:58:57.068Z,28.90
2022-12-18T20:01:25.171Z,32.65
2022-12-18T20:03:54.666Z,27.85
2022-12-18T20:06:29.497Z,28.83
2022-12-18T20:09:04.548Z,29.30
2022-12-18T20:11:32.737Z,31.50
2022-12-18T20:13:59.516Z,29.85
2022-12-18T20:16:26.416Z,29.65
2022-12-18T20:18:53.684Z,28.67
2022-12-18T20:21:20.367Z,29.80
2022-12-18T20:23:47.143Z,33.05
2022-12-18T20:26:14.020Z,31.35
2022-12-18T20:28:40.966Z,28.52
2022-12-18T20:31:10.346Z,30.02
2022-12-18T20:33:37.794Z,27.15
2022-12-18T20:36:07.276Z,32.72
2022-12-18T20:38:35.315Z,29.02
2022-12-18T20:41:06.947Z,32.08
2022-12-18T20:43:33.693Z,28.85
2022-12-18T20:46:04.700Z,31.25
2022-12-18T20:48:32.586Z,32.90
2022-12-18T20:51:05.751Z,36.47
2022-12-18T20:53:33.360Z,29.70
2022-12-18T20:56:00.393Z,34.80
2022-12-18T20:58:27.046Z,28.85
2022-12-18T21:01:09.281Z,30.17
2022-12-18T21:03:36.412Z,29.80
2022-12-18T21:06:03.913Z,33.55
2022-12-18T21:08:30.763Z,31.17
2022-12-18T21:11:31.649Z,37.55
2022-12-18T21:13:58.513Z,31.00
2022-12-18T21:16:25.331Z,33.67
2022-12-18T21:18:54.513Z,30.88
2022-12-18T21:21:26.604Z,33.28
2022-12-18T21:23:54.147Z,29.15
2022-12-18T21:26:23.888Z,33.10
2022-12-18T21:28:55.793Z,32.80
2022-12-18T21:31:24.553Z,31.50
2022-12-18T21:33:51.912Z,28.17
2022-12-18T21:36:21.477Z,35.30
2022-12-18T21:38:48.256Z,31.45
2022-12-18T21:41:38.805Z,34.92
2022-12-18T21:44:11.937Z,32.50
2022-12-18T21:46:40.855Z,32.65
2022-12-18T21:49:09.062Z,32.97
2022-12-18T21:51:36.358Z,29.98
2022-12-18T21:54:03.478Z,30.25
2022-12-18T21:56:54.878Z,35.42
2022-12-18T21:59:36.579Z,33.45
2022-12-18T22:02:07.813Z,31.27
2022-12-18T22:04:34.705Z,32.15
2022-12-18T22:07:02.575Z,35.28
2022-12-18T22:09:29.285Z,31.85
2022-12-18T22:11:56.006Z,33.40
2022-12-18T22:14:23.373Z,33.35
2022-12-18T22:16:51.117Z,33.53
2022-12-18T22:19:19.690Z,32.83
2022-12-18T22:21:48.699Z,30.15
2022-12-18T22:24:21.423Z,33.72
2022-12-18T22:26:49.168Z,31.17
2022-12-18T22:29:37.090Z,32.50
2022-12-18T22:32:05.597Z,33.83
2022-12-18T22:34:36.597Z,30.17
2022-12-18T22:37:03.570Z,32.53
2022-12-18T22:39:30.671Z,30.55
2022-12-18T22:41:58.154Z,33.13
2022-12-18T22:44:25.234Z,32.30
2022-12-18T22:47:06.035Z,33.15
2022-12-18T22:49:34.837Z,33.78
2022-12-18T22:52:06.344Z,34.15
2022-12-18T22:54:33.265Z,33.38
2022-12-18T22:56:59.992Z,31.90
2022-12-18T22:59:26.727Z,37.13
2022-12-18T23:01:58.641Z,36.10
2022-12-18T23:04:29.092Z,33.30
2022-12-18T23:07:04.609Z,30.92
2022-12-18T23:09:31.399Z,32.15
2022-12-18T23:11:58.136Z,31.10
2022-12-18T23:14:24.811Z,32.47
2022-12-18T23:16:51.491Z,32.83
2022-12-18T23:19:20.187Z,31.15
2022-12-18T23:21:46.994Z,34.60
2022-12-18T23:24:13.740Z,31.17
2022-12-18T23:26:40.491Z,31.65
2022-12-18T23:29:08.031Z,30.90
2022-12-18T23:31:39.474Z,33.78
2022-12-18T23:34:07.504Z,32.40
2022-12-18T23:36:45.308Z,32.38
2022-12-18T23:39:17.471Z,32.60
2022-12-18T23:41:57.761Z,33.78
2022-12-18T23:44:24.559Z,32.28
2022-12-18T23:46:51.285Z,31.83
2022-12-18T23:49:17.992Z,33.35
2022-12-18T23:51:45.625Z,33.10
2022-12-18T23:54:12.346Z,36.92
2022-12-18T23:56:39.028Z,35.45
2022-12-18T23:59:05.751Z,35.67
